sensor_id;sensor_type;location;lat;lon;timestamp;P1;durP1;ratioP1;P2;durP2;ratioP2
8466;SDS011;4270;48.148;11.648;2023-06-04T00:00:14;11.10;;;7.83;;
8466;SDS011;4270;48.148;11.648;2023-06-04T00:02:40;8.60;;;6.57;;
8466;SDS011;4270;48.148;11.648;2023-06-04T00:05:05;11.53;;;7.20;;
8466;SDS011;4270;48.148;11.648;2023-06-04T00:07:30;8.00;;;6.70;;
8466;SDS011;4270;48.148;11.648;2023-06-04T00:09:55;9.00;;;6.60;;
8466;SDS011;4270;48.148;11.648;2023-06-04T00:12:21;8.60;;;6.23;;
8466;SDS011;4270;48.148;11.648;2023-06-04T00:14:46;8.53;;;5.73;;
8466;SDS011;4270;48.148;11.648;2023-06-04T00:17:11;7.00;;;5.30;;
8466;SDS011;4270;48.148;11.648;2023-06-04T00:19:39;9.10;;;6.00;;
8466;SDS011;4270;48.148;11.648;2023-06-04T00:22:05;6.73;;;5.67;;
8466;SDS011;4270;48.148;11.648;2023-06-04T00:24:31;6.40;;;5.50;;
8466;SDS011;4270;48.148;11.648;2023-06-04T00:26:56;6.53;;;4.80;;
8466;SDS011;4270;48.148;11.648;2023-06-04T00:29:21;6.80;;;5.37;;
8466;SDS011;4270;48.148;11.648;2023-06-04T00:31:46;6.70;;;4.87;;
8466;SDS011;4270;48.148;11.648;2023-06-04T00:34:11;8.60;;;5.33;;
8466;SDS011;4270;48.148;11.648;2023-06-04T00:36:38;11.60;;;5.37;;
8466;SDS011;4270;48.148;11.648;2023-06-04T00:39:04;6.93;;;5.00;;
8466;SDS011;4270;48.148;11.648;2023-06-04T00:41:29;7.40;;;5.30;;
8466;SDS011;4270;48.148;11.648;2023-06-04T00:43:55;7.70;;;5.10;;
8466;SDS011;4270;48.148;11.648;2023-06-04T00:46:25;7.27;;;5.03;;
8466;SDS011;4270;48.148;11.648;2023-06-04T00:48:51;6.60;;;4.53;;
8466;SDS011;4270;48.148;11.648;2023-06-04T00:51:17;7.60;;;4.53;;
8466;SDS011;4270;48.148;11.648;2023-06-04T00:53:42;9.47;;;5.83;;
8466;SDS011;4270;48.148;11.648;2023-06-04T00:56:08;5.33;;;4.73;;
8466;SDS011;4270;48.148;11.648;2023-06-04T00:58:37;9.33;;;5.53;;
8466;SDS011;4270;48.148;11.648;2023-06-04T01:01:03;6.80;;;4.43;;
8466;SDS011;4270;48.148;11.648;2023-06-04T01:03:29;5.37;;;4.27;;
8466;SDS011;4270;48.148;11.648;2023-06-04T01:06:00;5.50;;;4.17;;
8466;SDS011;4270;48.148;11.648;2023-06-04T01:08:29;8.23;;;4.67;;
8466;SDS011;4270;48.148;11.648;2023-06-04T01:10:55;6.20;;;4.90;;
8466;SDS011;4270;48.148;11.648;2023-06-04T01:13:21;7.53;;;4.57;;
8466;SDS011;4270;48.148;11.648;2023-06-04T01:15:46;6.13;;;4.27;;
8466;SDS011;4270;48.148;11.648;2023-06-04T01:18:11;6.13;;;4.70;;
8466;SDS011;4270;48.148;11.648;2023-06-04T01:20:52;6.00;;;3.70;;
8466;SDS011;4270;48.148;11.648;2023-06-04T01:23:36;6.53;;;4.70;;
8466;SDS011;4270;48.148;11.648;2023-06-04T01:26:04;7.47;;;4.80;;
8466;SDS011;4270;48.148;11.648;2023-06-04T01:28:32;7.10;;;4.30;;
8466;SDS011;4270;48.148;11.648;2023-06-04T01:30:58;5.40;;;4.60;;
8466;SDS011;4270;48.148;11.648;2023-06-04T01:33:24;5.87;;;4.17;;
8466;SDS011;4270;48.148;11.648;2023-06-04T01:35:50;5.50;;;4.50;;
8466;SDS011;4270;48.148;11.648;2023-06-04T01:38:16;4.87;;;4.00;;
8466;SDS011;4270;48.148;11.648;2023-06-04T01:40:41;8.23;;;4.20;;
8466;SDS011;4270;48.148;11.648;2023-06-04T01:43:06;6.57;;;4.57;;
8466;SDS011;4270;48.148;11.648;2023-06-04T01:45:31;6.57;;;4.67;;
8466;SDS011;4270;48.148;11.648;2023-06-04T01:47:57;5.60;;;4.00;;
8466;SDS011;4270;48.148;11.648;2023-06-04T01:50:22;9.57;;;5.00;;
8466;SDS011;4270;48.148;11.648;2023-06-04T01:52:48;4.60;;;3.90;;
8466;SDS011;4270;48.148;11.648;2023-06-04T01:55:14;5.87;;;4.40;;
8466;SDS011;4270;48.148;11.648;2023-06-04T01:57:40;5.63;;;4.30;;
8466;SDS011;4270;48.148;11.648;2023-06-04T02:00:05;7.03;;;4.30;;
8466;SDS011;4270;48.148;11.648;2023-06-04T02:02:33;9.13;;;4.50;;
8466;SDS011;4270;48.148;11.648;2023-06-04T02:04:58;5.63;;;4.97;;
8466;SDS011;4270;48.148;11.648;2023-06-04T02:07:23;4.23;;;3.83;;
8466;SDS011;4270;48.148;11.648;2023-06-04T02:09:48;7.53;;;4.73;;
8466;SDS011;4270;48.148;11.648;2023-06-04T02:12:14;8.83;;;5.10;;
8466;SDS011;4270;48.148;11.648;2023-06-04T02:14:39;8.20;;;5.40;;
8466;SDS011;4270;48.148;11.648;2023-06-04T02:17:06;5.73;;;4.60;;
8466;SDS011;4270;48.148;11.648;2023-06-04T02:19:37;8.23;;;4.27;;
8466;SDS011;4270;48.148;11.648;2023-06-04T02:22:04;5.93;;;4.37;;
8466;SDS011;4270;48.148;11.648;2023-06-04T02:24:29;10.33;;;4.57;;
8466;SDS011;4270;48.148;11.648;2023-06-04T02:26:54;5.57;;;4.17;;
8466;SDS011;4270;48.148;11.648;2023-06-04T02:29:20;5.50;;;4.40;;
8466;SDS011;4270;48.148;11.648;2023-06-04T02:31:45;5.10;;;4.17;;
8466;SDS011;4270;48.148;11.648;2023-06-04T02:34:10;7.67;;;4.60;;
8466;SDS011;4270;48.148;11.648;2023-06-04T02:36:35;6.50;;;4.40;;
8466;SDS011;4270;48.148;11.648;2023-06-04T02:39:00;5.87;;;4.70;;
8466;SDS011;4270;48.148;11.648;2023-06-04T02:41:26;7.83;;;4.60;;
8466;SDS011;4270;48.148;11.648;2023-06-04T02:43:51;7.90;;;4.40;;
8466;SDS011;4270;48.148;11.648;2023-06-04T02:46:16;5.27;;;4.50;;
8466;SDS011;4270;48.148;11.648;2023-06-04T02:48:41;4.87;;;4.40;;
8466;SDS011;4270;48.148;11.648;2023-06-04T02:51:06;6.20;;;4.73;;
8466;SDS011;4270;48.148;11.648;2023-06-04T02:53:35;6.03;;;4.50;;
8466;SDS011;4270;48.148;11.648;2023-06-04T02:56:00;5.37;;;4.33;;
8466;SDS011;4270;48.148;11.648;2023-06-04T02:58:25;10.93;;;4.70;;
8466;SDS011;4270;48.148;11.648;2023-06-04T03:00:52;4.80;;;4.30;;
8466;SDS011;4270;48.148;11.648;2023-06-04T03:03:17;5.57;;;4.70;;
8466;SDS011;4270;48.148;11.648;2023-06-04T03:05:42;9.53;;;4.50;;
8466;SDS011;4270;48.148;11.648;2023-06-04T03:08:07;7.00;;;4.57;;
8466;SDS011;4270;48.148;11.648;2023-06-04T03:10:33;5.77;;;4.90;;
8466;SDS011;4270;48.148;11.648;2023-06-04T03:12:58;5.03;;;4.30;;
8466;SDS011;4270;48.148;11.648;2023-06-04T03:15:23;7.80;;;4.80;;
8466;SDS011;4270;48.148;11.648;2023-06-04T03:17:49;7.67;;;4.80;;
8466;SDS011;4270;48.148;11.648;2023-06-04T03:20:16;6.93;;;5.40;;
8466;SDS011;4270;48.148;11.648;2023-06-04T03:22:41;5.90;;;3.93;;
8466;SDS011;4270;48.148;11.648;2023-06-04T03:25:06;9.00;;;4.43;;
8466;SDS011;4270;48.148;11.648;2023-06-04T03:27:32;6.37;;;4.97;;
8466;SDS011;4270;48.148;11.648;2023-06-04T03:29:57;7.90;;;4.87;;
8466;SDS011;4270;48.148;11.648;2023-06-04T03:32:22;6.10;;;4.40;;
8466;SDS011;4270;48.148;11.648;2023-06-04T03:34:47;10.23;;;5.20;;
8466;SDS011;4270;48.148;11.648;2023-06-04T03:37:13;6.37;;;4.67;;
8466;SDS011;4270;48.148;11.648;2023-06-04T03:39:38;6.90;;;4.80;;
8466;SDS011;4270;48.148;11.648;2023-06-04T03:42:03;6.57;;;4.80;;
8466;SDS011;4270;48.148;11.648;2023-06-04T03:44:28;7.97;;;5.80;;
8466;SDS011;4270;48.148;11.648;2023-06-04T03:46:54;7.57;;;5.20;;
8466;SDS011;4270;48.148;11.648;2023-06-04T03:49:19;5.70;;;4.57;;
8466;SDS011;4270;48.148;11.648;2023-06-04T03:51:44;6.17;;;4.63;;
8466;SDS011;4270;48.148;11.648;2023-06-04T03:54:09;7.60;;;4.70;;
8466;SDS011;4270;48.148;11.648;2023-06-04T03:56:35;5.20;;;4.50;;
8466;SDS011;4270;48.148;11.648;2023-06-04T03:59:00;6.47;;;5.40;;
8466;SDS011;4270;48.148;11.648;2023-06-04T04:01:25;7.27;;;5.43;;
8466;SDS011;4270;48.148;11.648;2023-06-04T04:03:51;5.93;;;4.60;;
8466;SDS011;4270;48.148;11.648;2023-06-04T04:06:16;6.90;;;5.23;;
8466;SDS011;4270;48.148;11.648;2023-06-04T04:08:42;8.60;;;5.60;;
8466;SDS011;4270;48.148;11.648;2023-06-04T04:11:09;5.50;;;4.90;;
8466;SDS011;4270;48.148;11.648;2023-06-04T04:13:34;10.00;;;5.83;;
8466;SDS011;4270;48.148;11.648;2023-06-04T04:15:59;6.23;;;4.90;;
8466;SDS011;4270;48.148;11.648;2023-06-04T04:18:24;5.30;;;4.80;;
8466;SDS011;4270;48.148;11.648;2023-06-04T04:20:50;7.67;;;5.20;;
8466;SDS011;4270;48.148;11.648;2023-06-04T04:23:15;9.67;;;5.33;;
8466;SDS011;4270;48.148;11.648;2023-06-04T04:25:42;8.03;;;5.90;;
8466;SDS011;4270;48.148;11.648;2023-06-04T04:28:08;5.70;;;4.77;;
8466;SDS011;4270;48.148;11.648;2023-06-04T04:30:34;9.30;;;5.37;;
8466;SDS011;4270;48.148;11.648;2023-06-04T04:33:00;12.43;;;5.90;;
8466;SDS011;4270;48.148;11.648;2023-06-04T04:35:25;8.37;;;5.30;;
8466;SDS011;4270;48.148;11.648;2023-06-04T04:37:50;7.17;;;6.07;;
8466;SDS011;4270;48.148;11.648;2023-06-04T04:40:16;9.13;;;5.90;;
8466;SDS011;4270;48.148;11.648;2023-06-04T04:42:41;8.70;;;5.67;;
8466;SDS011;4270;48.148;11.648;2023-06-04T04:45:07;7.23;;;5.03;;
8466;SDS011;4270;48.148;11.648;2023-06-04T04:47:32;7.90;;;5.67;;
8466;SDS011;4270;48.148;11.648;2023-06-04T04:49:57;7.77;;;5.20;;
8466;SDS011;4270;48.148;11.648;2023-06-04T04:52:22;6.37;;;4.80;;
8466;SDS011;4270;48.148;11.648;2023-06-04T04:54:47;7.77;;;5.40;;
8466;SDS011;4270;48.148;11.648;2023-06-04T04:57:12;10.27;;;5.55;;
8466;SDS011;4270;48.148;11.648;2023-06-04T04:59:38;5.70;;;4.80;;
8466;SDS011;4270;48.148;11.648;2023-06-04T05:02:03;6.50;;;5.20;;
8466;SDS011;4270;48.148;11.648;2023-06-04T05:04:28;6.70;;;5.50;;
8466;SDS011;4270;48.148;11.648;2023-06-04T05:06:53;7.87;;;5.40;;
8466;SDS011;4270;48.148;11.648;2023-06-04T05:09:18;6.03;;;5.43;;
8466;SDS011;4270;48.148;11.648;2023-06-04T05:11:44;7.60;;;4.75;;
8466;SDS011;4270;48.148;11.648;2023-06-04T05:14:09;6.33;;;5.20;;
8466;SDS011;4270;48.148;11.648;2023-06-04T05:16:35;6.43;;;5.00;;
8466;SDS011;4270;48.148;11.648;2023-06-04T05:19:01;7.10;;;4.70;;
8466;SDS011;4270;48.148;11.648;2023-06-04T05:21:27;7.83;;;4.80;;
8466;SDS011;4270;48.148;11.648;2023-06-04T05:23:53;6.40;;;4.87;;
8466;SDS011;4270;48.148;11.648;2023-06-04T05:26:18;5.33;;;4.60;;
8466;SDS011;4270;48.148;11.648;2023-06-04T05:28:47;7.90;;;4.90;;
8466;SDS011;4270;48.148;11.648;2023-06-04T05:31:13;7.97;;;5.60;;
8466;SDS011;4270;48.148;11.648;2023-06-04T05:33:38;6.53;;;4.70;;
8466;SDS011;4270;48.148;11.648;2023-06-04T05:36:03;6.67;;;4.77;;
8466;SDS011;4270;48.148;11.648;2023-06-04T05:38:28;5.97;;;4.40;;
8466;SDS011;4270;48.148;11.648;2023-06-04T05:40:55;4.77;;;4.30;;
8466;SDS011;4270;48.148;11.648;2023-06-04T05:43:21;8.00;;;5.13;;
8466;SDS011;4270;48.148;11.648;2023-06-04T05:45:46;5.10;;;4.30;;
8466;SDS011;4270;48.148;11.648;2023-06-04T05:48:11;7.10;;;4.77;;
8466;SDS011;4270;48.148;11.648;2023-06-04T05:50:36;5.50;;;3.83;;
8466;SDS011;4270;48.148;11.648;2023-06-04T05:53:02;9.47;;;4.60;;
8466;SDS011;4270;48.148;11.648;2023-06-04T05:55:27;4.70;;;4.20;;
8466;SDS011;4270;48.148;11.648;2023-06-04T05:57:53;5.13;;;4.33;;
8466;SDS011;4270;48.148;11.648;2023-06-04T06:00:18;6.63;;;4.53;;
8466;SDS011;4270;48.148;11.648;2023-06-04T06:02:44;5.60;;;3.60;;
8466;SDS011;4270;48.148;11.648;2023-06-04T06:05:10;6.47;;;4.00;;
8466;SDS011;4270;48.148;11.648;2023-06-04T06:07:35;5.77;;;3.70;;
8466;SDS011;4270;48.148;11.648;2023-06-04T06:10:01;4.23;;;3.80;;
8466;SDS011;4270;48.148;11.648;2023-06-04T06:12:26;5.43;;;3.60;;
8466;SDS011;4270;48.148;11.648;2023-06-04T06:14:51;7.30;;;3.40;;
8466;SDS011;4270;48.148;11.648;2023-06-04T06:17:16;5.83;;;3.30;;
8466;SDS011;4270;48.148;11.648;2023-06-04T06:19:41;4.87;;;4.10;;
8466;SDS011;4270;48.148;11.648;2023-06-04T06:22:06;6.00;;;4.40;;
8466;SDS011;4270;48.148;11.648;2023-06-04T06:24:32;5.23;;;3.30;;
8466;SDS011;4270;48.148;11.648;2023-06-04T06:26:57;4.87;;;4.03;;
8466;SDS011;4270;48.148;11.648;2023-06-04T06:29:22;5.13;;;3.77;;
8466;SDS011;4270;48.148;11.648;2023-06-04T06:31:47;6.13;;;3.47;;
8466;SDS011;4270;48.148;11.648;2023-06-04T06:34:12;6.97;;;4.27;;
8466;SDS011;4270;48.148;11.648;2023-06-04T06:36:38;6.20;;;3.77;;
8466;SDS011;4270;48.148;11.648;2023-06-04T06:39:03;4.47;;;3.50;;
8466;SDS011;4270;48.148;11.648;2023-06-04T06:41:28;5.40;;;3.30;;
8466;SDS011;4270;48.148;11.648;2023-06-04T06:43:55;3.80;;;3.37;;
8466;SDS011;4270;48.148;11.648;2023-06-04T06:46:21;3.40;;;3.10;;
8466;SDS011;4270;48.148;11.648;2023-06-04T06:48:46;3.87;;;3.40;;
8466;SDS011;4270;48.148;11.648;2023-06-04T06:51:12;3.50;;;3.20;;
8466;SDS011;4270;48.148;11.648;2023-06-04T06:53:37;5.87;;;3.87;;
8466;SDS011;4270;48.148;11.648;2023-06-04T06:56:02;4.57;;;3.07;;
8466;SDS011;4270;48.148;11.648;2023-06-04T06:58:27;4.57;;;3.17;;
8466;SDS011;4270;48.148;11.648;2023-06-04T07:00:52;7.45;;;3.30;;
8466;SDS011;4270;48.148;11.648;2023-06-04T07:03:19;6.77;;;3.13;;
8466;SDS011;4270;48.148;11.648;2023-06-04T07:05:45;4.00;;;3.53;;
8466;SDS011;4270;48.148;11.648;2023-06-04T07:08:10;4.03;;;3.63;;
8466;SDS011;4270;48.148;11.648;2023-06-04T07:10:35;4.10;;;3.43;;
8466;SDS011;4270;48.148;11.648;2023-06-04T07:13:00;3.77;;;3.47;;
8466;SDS011;4270;48.148;11.648;2023-06-04T07:15:25;4.27;;;3.27;;
8466;SDS011;4270;48.148;11.648;2023-06-04T07:17:50;3.40;;;3.10;;
8466;SDS011;4270;48.148;11.648;2023-06-04T07:20:16;4.30;;;3.67;;
8466;SDS011;4270;48.148;11.648;2023-06-04T07:22:41;3.43;;;3.13;;
8466;SDS011;4270;48.148;11.648;2023-06-04T07:25:06;5.00;;;3.47;;
8466;SDS011;4270;48.148;11.648;2023-06-04T07:27:33;3.65;;;3.35;;
8466;SDS011;4270;48.148;11.648;2023-06-04T07:29:58;3.30;;;3.00;;
8466;SDS011;4270;48.148;11.648;2023-06-04T07:32:23;4.50;;;3.13;;
8466;SDS011;4270;48.148;11.648;2023-06-04T07:34:48;4.53;;;3.57;;
8466;SDS011;4270;48.148;11.648;2023-06-04T07:37:13;3.50;;;3.13;;
8466;SDS011;4270;48.148;11.648;2023-06-04T07:39:40;4.05;;;3.65;;
8466;SDS011;4270;48.148;11.648;2023-06-04T07:42:05;3.92;;;2.75;;
8466;SDS011;4270;48.148;11.648;2023-06-04T07:44:32;4.68;;;4.13;;
8466;SDS011;4270;48.148;11.648;2023-06-04T07:46:57;3.75;;;3.33;;
8466;SDS011;4270;48.148;11.648;2023-06-04T07:49:22;3.53;;;3.23;;
8466;SDS011;4270;48.148;11.648;2023-06-04T07:51:47;3.80;;;3.50;;
8466;SDS011;4270;48.148;11.648;2023-06-04T07:54:12;3.85;;;3.40;;
8466;SDS011;4270;48.148;11.648;2023-06-04T07:56:39;7.18;;;3.22;;
8466;SDS011;4270;48.148;11.648;2023-06-04T07:59:05;3.90;;;3.50;;
8466;SDS011;4270;48.148;11.648;2023-06-04T08:01:30;5.05;;;4.10;;
8466;SDS011;4270;48.148;11.648;2023-06-04T08:03:55;3.95;;;3.10;;
8466;SDS011;4270;48.148;11.648;2023-06-04T08:06:20;3.58;;;3.25;;
8466;SDS011;4270;48.148;11.648;2023-06-04T08:08:46;3.63;;;3.30;;
8466;SDS011;4270;48.148;11.648;2023-06-04T08:11:13;5.07;;;2.95;;
8466;SDS011;4270;48.148;11.648;2023-06-04T08:13:39;5.82;;;3.75;;
8466;SDS011;4270;48.148;11.648;2023-06-04T08:16:04;3.80;;;2.90;;
8466;SDS011;4270;48.148;11.648;2023-06-04T08:18:29;3.22;;;2.78;;
8466;SDS011;4270;48.148;11.648;2023-06-04T08:20:55;4.47;;;3.33;;
8466;SDS011;4270;48.148;11.648;2023-06-04T08:23:20;3.90;;;3.27;;
8466;SDS011;4270;48.148;11.648;2023-06-04T08:25:45;3.20;;;2.90;;
8466;SDS011;4270;48.148;11.648;2023-06-04T08:28:10;4.00;;;2.70;;
8466;SDS011;4270;48.148;11.648;2023-06-04T08:30:35;4.63;;;3.13;;
8466;SDS011;4270;48.148;11.648;2023-06-04T08:33:01;4.55;;;3.75;;
8466;SDS011;4270;48.148;11.648;2023-06-04T08:35:27;3.38;;;2.58;;
8466;SDS011;4270;48.148;11.648;2023-06-04T08:37:52;5.27;;;3.57;;
8466;SDS011;4270;48.148;11.648;2023-06-04T08:40:17;5.27;;;3.60;;
8466;SDS011;4270;48.148;11.648;2023-06-04T08:42:43;3.92;;;3.22;;
8466;SDS011;4270;48.148;11.648;2023-06-04T08:45:12;4.28;;;3.42;;
8466;SDS011;4270;48.148;11.648;2023-06-04T08:47:39;3.20;;;3.00;;
8466;SDS011;4270;48.148;11.648;2023-06-04T08:50:07;5.80;;;3.30;;
8466;SDS011;4270;48.148;11.648;2023-06-04T08:52:34;3.45;;;3.15;;
8466;SDS011;4270;48.148;11.648;2023-06-04T08:55:00;3.95;;;3.65;;
8466;SDS011;4270;48.148;11.648;2023-06-04T08:57:26;3.33;;;3.03;;
8466;SDS011;4270;48.148;11.648;2023-06-04T08:59:51;5.37;;;3.50;;
8466;SDS011;4270;48.148;11.648;2023-06-04T09:02:17;3.90;;;3.60;;
8466;SDS011;4270;48.148;11.648;2023-06-04T09:04:42;3.80;;;3.50;;
8466;SDS011;4270;48.148;11.648;2023-06-04T09:07:08;3.95;;;3.03;;
8466;SDS011;4270;48.148;11.648;2023-06-04T09:09:35;4.03;;;3.50;;
8466;SDS011;4270;48.148;11.648;2023-06-04T09:12:01;4.43;;;2.97;;
8466;SDS011;4270;48.148;11.648;2023-06-04T09:14:28;6.38;;;3.30;;
8466;SDS011;4270;48.148;11.648;2023-06-04T09:16:53;3.57;;;3.37;;
8466;SDS011;4270;48.148;11.648;2023-06-04T09:19:19;5.07;;;3.58;;
8466;SDS011;4270;48.148;11.648;2023-06-04T09:21:52;3.78;;;3.55;;
8466;SDS011;4270;48.148;11.648;2023-06-04T09:24:18;3.40;;;3.20;;
8466;SDS011;4270;48.148;11.648;2023-06-04T09:26:44;5.15;;;3.72;;
8466;SDS011;4270;48.148;11.648;2023-06-04T09:29:09;4.13;;;3.80;;
8466;SDS011;4270;48.148;11.648;2023-06-04T09:31:35;3.90;;;3.60;;
8466;SDS011;4270;48.148;11.648;2023-06-04T09:34:02;4.07;;;3.70;;
8466;SDS011;4270;48.148;11.648;2023-06-04T09:36:30;3.47;;;3.17;;
8466;SDS011;4270;48.148;11.648;2023-06-04T09:38:56;4.03;;;3.30;;
8466;SDS011;4270;48.148;11.648;2023-06-04T09:41:21;9.20;;;3.70;;
8466;SDS011;4270;48.148;11.648;2023-06-04T09:43:47;3.83;;;3.53;;
8466;SDS011;4270;48.148;11.648;2023-06-04T09:46:13;4.43;;;4.03;;
8466;SDS011;4270;48.148;11.648;2023-06-04T09:48:41;5.07;;;4.03;;
8466;SDS011;4270;48.148;11.648;2023-06-04T09:51:11;3.97;;;3.67;;
8466;SDS011;4270;48.148;11.648;2023-06-04T09:53:37;3.90;;;3.60;;
8466;SDS011;4270;48.148;11.648;2023-06-04T09:56:02;5.47;;;3.40;;
8466;SDS011;4270;48.148;11.648;2023-06-04T09:58:36;4.97;;;3.55;;
8466;SDS011;4270;48.148;11.648;2023-06-04T10:01:04;4.00;;;3.67;;
8466;SDS011;4270;48.148;11.648;2023-06-04T10:03:34;4.57;;;3.83;;
8466;SDS011;4270;48.148;11.648;2023-06-04T10:06:02;4.93;;;4.03;;
8466;SDS011;4270;48.148;11.648;2023-06-04T10:08:28;3.83;;;3.45;;
8466;SDS011;4270;48.148;11.648;2023-06-04T10:10:55;3.92;;;3.17;;
8466;SDS011;4270;48.148;11.648;2023-06-04T10:13:20;4.03;;;3.72;;
8466;SDS011;4270;48.148;11.648;2023-06-04T10:15:46;3.90;;;3.60;;
8466;SDS011;4270;48.148;11.648;2023-06-04T10:18:12;3.88;;;3.47;;
8466;SDS011;4270;48.148;11.648;2023-06-04T10:20:38;4.32;;;3.92;;
8466;SDS011;4270;48.148;11.648;2023-06-04T10:23:04;3.85;;;3.55;;
8466;SDS011;4270;48.148;11.648;2023-06-04T10:25:29;4.22;;;3.28;;
8466;SDS011;4270;48.148;11.648;2023-06-04T10:27:55;3.53;;;3.22;;
8466;SDS011;4270;48.148;11.648;2023-06-04T10:30:20;5.30;;;4.03;;
8466;SDS011;4270;48.148;11.648;2023-06-04T10:32:45;3.27;;;2.97;;
8466;SDS011;4270;48.148;11.648;2023-06-04T10:35:11;4.68;;;3.22;;
8466;SDS011;4270;48.148;11.648;2023-06-04T10:37:37;5.25;;;3.88;;
8466;SDS011;4270;48.148;11.648;2023-06-04T10:40:02;3.90;;;3.43;;
8466;SDS011;4270;48.148;11.648;2023-06-04T10:42:37;3.97;;;3.55;;
8466;SDS011;4270;48.148;11.648;2023-06-04T10:45:02;4.47;;;3.58;;
8466;SDS011;4270;48.148;11.648;2023-06-04T10:47:27;4.30;;;3.10;;
8466;SDS011;4270;48.148;11.648;2023-06-04T10:50:11;3.57;;;3.27;;
8466;SDS011;4270;48.148;11.648;2023-06-04T10:52:37;3.43;;;3.13;;
8466;SDS011;4270;48.148;11.648;2023-06-04T10:55:03;6.13;;;3.40;;
8466;SDS011;4270;48.148;11.648;2023-06-04T10:57:29;3.57;;;2.70;;
8466;SDS011;4270;48.148;11.648;2023-06-04T10:59:55;3.30;;;3.00;;
8466;SDS011;4270;48.148;11.648;2023-06-04T11:02:20;5.33;;;3.57;;
8466;SDS011;4270;48.148;11.648;2023-06-04T11:04:46;3.60;;;3.30;;
8466;SDS011;4270;48.148;11.648;2023-06-04T11:07:11;3.53;;;3.23;;
8466;SDS011;4270;48.148;11.648;2023-06-04T11:09:37;4.13;;;3.60;;
8466;SDS011;4270;48.148;11.648;2023-06-04T11:12:04;3.57;;;3.27;;
8466;SDS011;4270;48.148;11.648;2023-06-04T11:14:29;3.83;;;3.00;;
8466;SDS011;4270;48.148;11.648;2023-06-04T11:16:55;4.20;;;3.40;;
8466;SDS011;4270;48.148;11.648;2023-06-04T11:19:20;4.03;;;3.43;;
8466;SDS011;4270;48.148;11.648;2023-06-04T11:21:45;3.77;;;3.37;;
8466;SDS011;4270;48.148;11.648;2023-06-04T11:24:12;7.80;;;4.13;;
8466;SDS011;4270;48.148;11.648;2023-06-04T11:26:37;5.10;;;2.90;;
8466;SDS011;4270;48.148;11.648;2023-06-04T11:29:05;5.47;;;3.20;;
8466;SDS011;4270;48.148;11.648;2023-06-04T11:31:40;3.63;;;3.20;;
8466;SDS011;4270;48.148;11.648;2023-06-04T11:34:05;4.30;;;3.20;;
8466;SDS011;4270;48.148;11.648;2023-06-04T11:36:30;4.60;;;3.03;;
8466;SDS011;4270;48.148;11.648;2023-06-04T11:39:00;3.70;;;3.40;;
8466;SDS011;4270;48.148;11.648;2023-06-04T11:41:29;3.93;;;3.53;;
8466;SDS011;4270;48.148;11.648;2023-06-04T11:44:00;4.97;;;3.27;;
8466;SDS011;4270;48.148;11.648;2023-06-04T11:46:25;7.00;;;3.70;;
8466;SDS011;4270;48.148;11.648;2023-06-04T11:48:51;4.80;;;3.37;;
8466;SDS011;4270;48.148;11.648;2023-06-04T11:51:17;4.07;;;3.67;;
8466;SDS011;4270;48.148;11.648;2023-06-04T11:53:43;5.77;;;3.43;;
8466;SDS011;4270;48.148;11.648;2023-06-04T11:56:09;9.27;;;3.40;;
8466;SDS011;4270;48.148;11.648;2023-06-04T11:58:34;4.87;;;3.00;;
8466;SDS011;4270;48.148;11.648;2023-06-04T12:00:59;3.40;;;3.10;;
8466;SDS011;4270;48.148;11.648;2023-06-04T12:03:40;3.73;;;3.33;;
8466;SDS011;4270;48.148;11.648;2023-06-04T12:06:09;4.80;;;3.47;;
8466;SDS011;4270;48.148;11.648;2023-06-04T12:08:43;6.10;;;3.20;;
8466;SDS011;4270;48.148;11.648;2023-06-04T12:11:09;4.20;;;3.80;;
8466;SDS011;4270;48.148;11.648;2023-06-04T12:13:36;4.37;;;3.60;;
8466;SDS011;4270;48.148;11.648;2023-06-04T12:16:02;4.10;;;3.30;;
8466;SDS011;4270;48.148;11.648;2023-06-04T12:18:27;4.13;;;3.30;;
8466;SDS011;4270;48.148;11.648;2023-06-04T12:20:52;3.70;;;3.30;;
8466;SDS011;4270;48.148;11.648;2023-06-04T12:23:19;3.43;;;3.13;;
8466;SDS011;4270;48.148;11.648;2023-06-04T12:25:49;4.70;;;3.97;;
8466;SDS011;4270;48.148;11.648;2023-06-04T12:28:18;5.07;;;3.50;;
8466;SDS011;4270;48.148;11.648;2023-06-04T12:30:43;4.30;;;3.57;;
8466;SDS011;4270;48.148;11.648;2023-06-04T12:33:10;5.93;;;3.40;;
8466;SDS011;4270;48.148;11.648;2023-06-04T12:35:35;4.80;;;3.90;;
8466;SDS011;4270;48.148;11.648;2023-06-04T12:38:02;5.50;;;3.30;;
8466;SDS011;4270;48.148;11.648;2023-06-04T12:40:27;5.37;;;3.80;;
8466;SDS011;4270;48.148;11.648;2023-06-04T12:42:52;6.23;;;3.80;;
8466;SDS011;4270;48.148;11.648;2023-06-04T12:45:18;5.90;;;3.77;;
8466;SDS011;4270;48.148;11.648;2023-06-04T12:47:43;4.10;;;3.70;;
8466;SDS011;4270;48.148;11.648;2023-06-04T12:50:08;3.93;;;3.53;;
8466;SDS011;4270;48.148;11.648;2023-06-04T12:52:34;3.97;;;3.30;;
8466;SDS011;4270;48.148;11.648;2023-06-04T12:54:59;5.20;;;3.60;;
8466;SDS011;4270;48.148;11.648;2023-06-04T12:57:24;3.93;;;3.53;;
8466;SDS011;4270;48.148;11.648;2023-06-04T12:59:49;4.33;;;3.57;;
8466;SDS011;4270;48.148;11.648;2023-06-04T13:02:15;3.80;;;3.37;;
8466;SDS011;4270;48.148;11.648;2023-06-04T13:04:40;4.23;;;3.47;;
8466;SDS011;4270;48.148;11.648;2023-06-04T13:07:07;4.53;;;4.10;;
8466;SDS011;4270;48.148;11.648;2023-06-04T13:09:33;5.17;;;4.10;;
8466;SDS011;4270;48.148;11.648;2023-06-04T13:11:59;4.00;;;3.33;;
8466;SDS011;4270;48.148;11.648;2023-06-04T13:14:25;4.60;;;3.50;;
8466;SDS011;4270;48.148;11.648;2023-06-04T13:16:50;4.53;;;3.23;;
8466;SDS011;4270;48.148;11.648;2023-06-04T13:19:16;6.90;;;3.23;;
8466;SDS011;4270;48.148;11.648;2023-06-04T13:21:41;4.40;;;3.87;;
8466;SDS011;4270;48.148;11.648;2023-06-04T13:24:06;4.33;;;3.93;;
8466;SDS011;4270;48.148;11.648;2023-06-04T13:26:32;6.83;;;3.30;;
8466;SDS011;4270;48.148;11.648;2023-06-04T13:28:57;5.13;;;3.30;;
8466;SDS011;4270;48.148;11.648;2023-06-04T13:31:23;5.00;;;3.70;;
8466;SDS011;4270;48.148;11.648;2023-06-04T13:33:48;4.10;;;3.70;;
8466;SDS011;4270;48.148;11.648;2023-06-04T13:36:13;4.80;;;3.40;;
8466;SDS011;4270;48.148;11.648;2023-06-04T13:38:38;3.80;;;3.37;;
8466;SDS011;4270;48.148;11.648;2023-06-04T13:41:03;4.40;;;3.70;;
8466;SDS011;4270;48.148;11.648;2023-06-04T13:43:28;4.00;;;3.60;;
8466;SDS011;4270;48.148;11.648;2023-06-04T13:45:54;3.90;;;3.60;;
8466;SDS011;4270;48.148;11.648;2023-06-04T13:48:19;4.97;;;3.50;;
8466;SDS011;4270;48.148;11.648;2023-06-04T13:50:44;4.00;;;3.60;;
8466;SDS011;4270;48.148;11.648;2023-06-04T13:53:09;4.47;;;3.43;;
8466;SDS011;4270;48.148;11.648;2023-06-04T13:55:35;4.60;;;3.90;;
8466;SDS011;4270;48.148;11.648;2023-06-04T13:58:00;5.00;;;3.40;;
8466;SDS011;4270;48.148;11.648;2023-06-04T14:00:26;4.63;;;4.10;;
8466;SDS011;4270;48.148;11.648;2023-06-04T14:02:52;6.60;;;3.40;;
8466;SDS011;4270;48.148;11.648;2023-06-04T14:05:19;4.53;;;3.90;;
8466;SDS011;4270;48.148;11.648;2023-06-04T14:07:44;4.80;;;3.40;;
8466;SDS011;4270;48.148;11.648;2023-06-04T14:10:10;5.17;;;3.47;;
8466;SDS011;4270;48.148;11.648;2023-06-04T14:12:37;4.30;;;3.90;;
8466;SDS011;4270;48.148;11.648;2023-06-04T14:15:03;4.60;;;3.30;;
8466;SDS011;4270;48.148;11.648;2023-06-04T14:17:28;5.70;;;3.67;;
8466;SDS011;4270;48.148;11.648;2023-06-04T14:19:53;4.10;;;3.70;;
8466;SDS011;4270;48.148;11.648;2023-06-04T14:22:19;5.07;;;3.50;;
8466;SDS011;4270;48.148;11.648;2023-06-04T14:24:44;4.27;;;3.60;;
8466;SDS011;4270;48.148;11.648;2023-06-04T14:27:09;4.10;;;3.80;;
8466;SDS011;4270;48.148;11.648;2023-06-04T14:29:35;6.30;;;3.37;;
8466;SDS011;4270;48.148;11.648;2023-06-04T14:32:01;6.10;;;3.60;;
8466;SDS011;4270;48.148;11.648;2023-06-04T14:34:26;4.17;;;3.53;;
8466;SDS011;4270;48.148;11.648;2023-06-04T14:36:51;3.90;;;3.60;;
8466;SDS011;4270;48.148;11.648;2023-06-04T14:39:16;3.77;;;3.47;;
8466;SDS011;4270;48.148;11.648;2023-06-04T14:41:42;3.60;;;3.30;;
8466;SDS011;4270;48.148;11.648;2023-06-04T14:44:07;4.10;;;3.70;;
8466;SDS011;4270;48.148;11.648;2023-06-04T14:46:32;3.73;;;3.40;;
8466;SDS011;4270;48.148;11.648;2023-06-04T14:48:57;5.17;;;4.13;;
8466;SDS011;4270;48.148;11.648;2023-06-04T14:51:22;3.77;;;3.37;;